createdAt,value
2018-10-06T00:00:00.073Z,0.00
2018-10-06T00:01:00.079Z,0.00
2018-10-06T00:02:00.049Z,0.00
2018-10-06T00:03:00.044Z,0.00
2018-10-06T00:04:00.026Z,0.00
2018-10-06T00:05:00.015Z,0.00
2018-10-06T00:06:00.016Z,0.00
2018-10-06T00:07:00.001Z,0.00
2018-10-06T00:07:59.985Z,0.00
2018-10-06T00:08:59.968Z,0.00
2018-10-06T00:09:59.960Z,0.00
2018-10-06T00:10:59.956Z,0.00
2018-10-06T00:11:59.937Z,0.00
2018-10-06T00:12:59.926Z,0.00
2018-10-06T00:13:59.913Z,0.00
2018-10-06T00:14:59.903Z,0.00
2018-10-06T00:15:59.905Z,0.00
2018-10-06T00:16:59.882Z,0.00
2018-10-06T00:17:59.873Z,0.00
2018-10-06T00:18:59.858Z,0.00
2018-10-06T00:19:59.847Z,0.00
2018-10-06T00:20:59.844Z,0.00
2018-10-06T00:21:59.822Z,0.00
2018-10-06T00:22:59.810Z,0.00
2018-10-06T00:23:59.801Z,0.00
2018-10-06T00:24:59.788Z,0.00
2018-10-06T00:25:59.789Z,0.00
2018-10-06T00:26:59.768Z,0.00
2018-10-06T00:27:59.758Z,0.00
2018-10-06T00:28:59.756Z,0.00
2018-10-06T00:29:59.733Z,0.00
2018-10-06T00:30:59.733Z,0.00
2018-10-06T00:31:59.710Z,0.00
2018-10-06T00:32:59.713Z,0.00
2018-10-06T00:33:59.689Z,0.00
2018-10-06T00:34:59.675Z,0.00
2018-10-06T00:35:59.675Z,0.00
2018-10-06T00:36:59.662Z,0.00
2018-10-06T00:37:59.642Z,0.00
2018-10-06T00:38:59.634Z,0.00
2018-10-06T00:39:59.627Z,0.00
2018-10-06T00:40:59.619Z,0.00
2018-10-06T00:41:59.599Z,0.00
2018-10-06T00:42:59.585Z,0.00
2018-10-06T00:43:59.574Z,0.00
2018-10-06T00:44:59.569Z,0.00
2018-10-06T00:45:59.560Z,0.00
2018-10-06T00:46:59.545Z,0.00
2018-10-06T00:47:59.528Z,0.00
2018-10-06T00:48:59.524Z,0.00
2018-10-06T00:49:59.506Z,0.00
2018-10-06T00:50:59.497Z,0.00
2018-10-06T00:51:59.496Z,0.00
2018-10-06T00:52:59.471Z,0.00
2018-10-06T00:53:59.469Z,0.00
2018-10-06T00:54:59.450Z,0.00
2018-10-06T00:55:59.440Z,0.00
2018-10-06T00:56:59.448Z,0.00
2018-10-06T00:57:59.416Z,0.00
2018-10-06T00:58:59.413Z,0.00
2018-10-06T00:59:59.415Z,0.00
2018-10-06T01:00:59.386Z,0.00
2018-10-06T01:01:59.388Z,0.00
2018-10-06T01:02:59.363Z,0.00
2018-10-06T01:03:59.347Z,0.00
2018-10-06T01:04:59.338Z,0.00
2018-10-06T01:05:59.326Z,0.00
2018-10-06T01:06:59.326Z,0.00
2018-10-06T01:07:59.308Z,0.00
2018-10-06T01:08:59.290Z,0.00
2018-10-06T01:09:59.283Z,0.00
2018-10-06T01:10:59.269Z,0.00
2018-10-06T01:11:59.287Z,0.00
2018-10-06T01:12:59.256Z,0.00
2018-10-06T01:13:59.238Z,0.00
2018-10-06T01:14:59.224Z,0.00
2018-10-06T01:15:59.219Z,0.00
2018-10-06T01:16:59.217Z,0.00
2018-10-06T01:17:59.206Z,0.00
2018-10-06T01:18:59.190Z,0.00
2018-10-06T01:19:59.167Z,0.00
2018-10-06T01:20:59.158Z,0.00
2018-10-06T01:21:59.165Z,0.00
2018-10-06T01:22:59.134Z,0.00
2018-10-06T01:23:59.123Z,0.00
2018-10-06T01:24:59.112Z,0.00
2018-10-06T01:25:59.101Z,0.00
2018-10-06T01:26:59.103Z,0.00
2018-10-06T01:27:59.090Z,0.00
2018-10-06T01:28:59.065Z,0.00
2018-10-06T01:29:59.055Z,0.00
2018-10-06T01:30:59.042Z,0.00
2018-10-06T01:31:59.056Z,0.00
2018-10-06T01:32:59.019Z,0.00
2018-10-06T01:33:59.009Z,0.00
2018-10-06T01:34:59.000Z,0.00
2018-10-06T01:35:58.990Z,0.00
2018-10-06T01:36:58.984Z,0.00
2018-10-06T01:37:58.965Z,0.00
2018-10-06T01:38:58.961Z,0.00
2018-10-06T01:39:58.944Z,0.00
2018-10-06T01:40:58.937Z,0.00
2018-10-06T01:41:58.936Z,0.00
2018-10-06T01:42:58.907Z,0.00
2018-10-06T01:43:58.895Z,0.00
2018-10-06T01:44:58.886Z,0.00
2018-10-06T01:45:58.877Z,0.00
2018-10-06T01:46:58.871Z,0.00
2018-10-06T01:47:58.851Z,0.00
2018-10-06T01:48:58.843Z,0.00
2018-10-06T01:49:58.842Z,0.00
2018-10-06T01:50:58.873Z,0.00
2018-10-06T01:51:58.830Z,0.00
2018-10-06T01:52:58.798Z,0.00
2018-10-06T01:53:58.785Z,0.00
2018-10-06T01:54:58.771Z,0.00
2018-10-06T01:55:58.767Z,0.00
2018-10-06T01:56:58.749Z,0.00
2018-10-06T01:57:58.749Z,0.00
2018-10-06T01:58:58.726Z,0.00
2018-10-06T01:59:58.720Z,0.00
2018-10-06T02:00:58.702Z,0.00
2018-10-06T02:01:58.692Z,0.00
2018-10-06T02:03:02.028Z,0.00
2018-10-06T02:03:58.675Z,0.00
2018-10-06T02:04:58.658Z,0.00
2018-10-06T02:05:58.647Z,0.00
2018-10-06T02:06:58.652Z,0.00
2018-10-06T02:07:58.636Z,0.00
2018-10-06T02:08:58.621Z,0.00
2018-10-06T02:09:58.600Z,0.00
2018-10-06T02:10:58.591Z,0.00
2018-10-06T02:11:58.581Z,0.00
2018-10-06T02:12:58.576Z,0.00
2018-10-06T02:13:58.556Z,0.00
2018-10-06T02:14:58.542Z,0.00
2018-10-06T02:15:58.531Z,0.00
2018-10-06T02:16:58.523Z,0.00
2018-10-06T02:17:58.519Z,0.00
2018-10-06T02:18:58.499Z,0.00
2018-10-06T02:19:58.484Z,0.00
2018-10-06T02:20:58.474Z,0.00
2018-10-06T02:21:58.463Z,0.00
2018-10-06T02:22:58.460Z,0.00
2018-10-06T02:23:58.439Z,0.00
2018-10-06T02:24:58.428Z,0.00
2018-10-06T02:25:58.418Z,0.00
2018-10-06T02:26:58.403Z,0.00
2018-10-06T02:27:58.401Z,0.00
2018-10-06T02:28:58.386Z,0.00
2018-10-06T02:29:58.387Z,0.00
2018-10-06T02:30:58.368Z,0.00
2018-10-06T02:31:58.346Z,0.00
2018-10-06T02:32:58.346Z,0.00
2018-10-06T02:33:58.325Z,0.00
2018-10-06T02:34:58.331Z,0.00
2018-10-06T02:35:58.315Z,0.00
2018-10-06T02:36:58.402Z,0.00
2018-10-06T02:37:58.295Z,0.00
2018-10-06T02:38:58.269Z,0.00
2018-10-06T02:39:58.256Z,0.00
2018-10-06T02:40:58.256Z,0.00
2018-10-06T02:41:58.236Z,0.00
2018-10-06T02:42:58.238Z,0.00
2018-10-06T02:43:58.214Z,0.00
2018-10-06T02:44:58.208Z,0.00
2018-10-06T02:45:58.193Z,0.00
2018-10-06T02:46:58.177Z,0.00
2018-10-06T02:47:58.180Z,0.00
2018-10-06T02:48:58.154Z,0.00
2018-10-06T02:49:58.144Z,0.00
2018-10-06T02:50:58.131Z,0.00
2018-10-06T02:51:58.125Z,0.00
2018-10-06T02:52:58.119Z,0.00
2018-10-06T02:53:58.095Z,0.00
2018-10-06T02:54:58.087Z,0.00
2018-10-06T02:55:58.074Z,0.00
2018-10-06T02:56:58.066Z,0.00
2018-10-06T02:57:58.066Z,0.00
2018-10-06T02:58:58.040Z,0.00
2018-10-06T02:59:58.027Z,0.00
2018-10-06T03:00:58.015Z,0.00
2018-10-06T03:01:58.008Z,0.00
2018-10-06T03:02:58.005Z,0.00
2018-10-06T03:03:57.980Z,0.00
2018-10-06T03:04:57.972Z,0.00
2018-10-06T03:05:57.967Z,0.00
2018-10-06T03:06:57.949Z,0.00
2018-10-06T03:07:57.936Z,0.00
2018-10-06T03:08:57.939Z,0.00
2018-10-06T03:09:57.914Z,0.00
2018-10-06T03:10:57.909Z,0.00
2018-10-06T03:11:57.896Z,0.00
2018-10-06T03:12:57.883Z,0.00
2018-10-06T03:13:57.896Z,0.00
2018-10-06T03:14:57.866Z,0.00
2018-10-06T03:15:57.883Z,0.00
2018-10-06T03:16:57.836Z,0.00
2018-10-06T03:17:57.827Z,0.00
2018-10-06T03:18:57.833Z,0.00
2018-10-06T03:19:57.827Z,0.00
2018-10-06T03:20:57.798Z,0.00
2018-10-06T03:21:57.781Z,0.00
2018-10-06T03:22:57.774Z,0.00
2018-10-06T03:23:57.772Z,0.00
2018-10-06T03:24:57.749Z,0.00
2018-10-06T03:25:57.737Z,0.00
2018-10-06T03:26:57.726Z,0.00
2018-10-06T03:27:57.716Z,0.00
2018-10-06T03:28:57.713Z,0.00
2018-10-06T03:29:57.691Z,0.00
2018-10-06T03:30:57.691Z,0.00
2018-10-06T03:31:57.672Z,0.00
2018-10-06T03:32:57.658Z,0.00
2018-10-06T03:33:57.657Z,0.00
2018-10-06T03:34:57.636Z,0.00
2018-10-06T03:35:57.624Z,0.00
2018-10-06T03:36:57.615Z,0.00
2018-10-06T03:37:57.608Z,0.00
2018-10-06T03:38:57.608Z,0.00
2018-10-06T03:39:57.586Z,0.00
2018-10-06T03:40:57.568Z,0.00
2018-10-06T03:41:57.563Z,0.00
2018-10-06T03:42:57.550Z,0.00
2018-10-06T03:43:57.549Z,0.00
2018-10-06T03:44:57.526Z,0.00
2018-10-06T03:45:57.514Z,0.00
2018-10-06T03:46:57.511Z,0.00
2018-10-06T03:47:57.495Z,0.00
2018-10-06T03:48:57.493Z,0.00
2018-10-06T03:49:57.469Z,0.00
2018-10-06T03:50:57.458Z,0.00
2018-10-06T03:51:57.450Z,0.00
2018-10-06T03:52:57.435Z,0.00
2018-10-06T03:53:57.454Z,0.00
2018-10-06T03:54:57.423Z,0.00
2018-10-06T03:55:57.402Z,0.00
2018-10-06T03:56:57.391Z,0.00
2018-10-06T03:57:57.383Z,0.00
2018-10-06T03:58:57.383Z,0.00
2018-10-06T03:59:57.359Z,0.00
2018-10-06T04:00:57.345Z,0.00
2018-10-06T04:01:57.336Z,0.00
2018-10-06T04:02:57.324Z,0.00
2018-10-06T04:03:57.326Z,0.00
2018-10-06T04:04:57.301Z,0.00
2018-10-06T04:05:57.302Z,0.00
2018-10-06T04:06:57.279Z,0.00
2018-10-06T04:07:57.267Z,0.00
2018-10-06T04:08:57.270Z,0.00
2018-10-06T04:09:57.253Z,0.00
2018-10-06T04:10:57.235Z,0.00
2018-10-06T04:11:57.223Z,0.00
2018-10-06T04:12:57.212Z,0.00
2018-10-06T04:13:57.212Z,0.00
2018-10-06T04:14:57.191Z,0.00
2018-10-06T04:15:57.182Z,0.00
2018-10-06T04:16:57.195Z,0.00
2018-10-06T04:17:57.157Z,0.00
2018-10-06T04:18:57.157Z,0.00
2018-10-06T04:19:57.134Z,0.00
2018-10-06T04:20:57.122Z,0.00
2018-10-06T04:21:57.116Z,0.00
2018-10-06T04:22:57.104Z,0.00
2018-10-06T04:23:57.110Z,0.00
2018-10-06T04:24:57.080Z,0.00
2018-10-06T04:25:57.067Z,0.00
2018-10-06T04:26:57.065Z,0.00
2018-10-06T04:27:57.054Z,0.00
2018-10-06T04:28:57.036Z,0.00
2018-10-06T04:29:57.037Z,0.00
2018-10-06T04:30:57.013Z,0.00
2018-10-06T04:31:57.010Z,0.00
2018-10-06T04:32:56.992Z,0.00
2018-10-06T04:33:56.996Z,0.00
2018-10-06T04:34:56.984Z,0.00
2018-10-06T04:35:56.973Z,0.00
2018-10-06T04:36:56.947Z,0.00
2018-10-06T04:37:56.935Z,0.00
2018-10-06T04:38:56.927Z,0.00
2018-10-06T04:39:56.922Z,0.00
2018-10-06T04:40:56.904Z,0.00
2018-10-06T04:41:56.891Z,0.00
2018-10-06T04:42:56.880Z,0.00
2018-10-06T04:43:56.874Z,0.00
2018-10-06T04:44:56.874Z,0.00
2018-10-06T04:45:56.847Z,0.00
2018-10-06T04:46:56.838Z,0.00
2018-10-06T04:47:56.826Z,0.00
2018-10-06T04:48:56.815Z,0.00
2018-10-06T04:49:56.822Z,0.00
2018-10-06T04:50:56.798Z,0.00
2018-10-06T04:51:56.782Z,0.00
2018-10-06T04:52:56.817Z,0.00
2018-10-06T04:53:56.759Z,0.00
2018-10-06T04:54:56.776Z,0.00
2018-10-06T04:55:56.738Z,0.00
2018-10-06T04:56:56.729Z,0.00
2018-10-06T04:57:56.714Z,0.00
2018-10-06T04:58:56.706Z,0.00
2018-10-06T04:59:56.704Z,0.00
2018-10-06T05:00:56.685Z,0.00
2018-10-06T05:01:56.671Z,0.00
2018-10-06T05:02:56.659Z,0.00
2018-10-06T05:03:56.651Z,0.00
2018-10-06T05:04:56.648Z,0.00
2018-10-06T05:05:56.625Z,0.00
2018-10-06T05:06:56.627Z,0.00
2018-10-06T05:07:56.612Z,0.00
2018-10-06T05:08:56.600Z,0.00
2018-10-06T05:09:56.591Z,0.00
2018-10-06T05:10:56.591Z,4.00
2018-10-06T05:11:56.560Z,0.00
2018-10-06T05:12:56.555Z,4.00
2018-10-06T05:13:56.538Z,0.00
2018-10-06T05:14:56.537Z,4.00
2018-10-06T05:15:56.514Z,4.00
2018-10-06T05:16:56.503Z,4.00
2018-10-06T05:17:56.494Z,8.00
2018-10-06T05:18:56.489Z,4.00
2018-10-06T05:19:56.497Z,8.00
2018-10-06T05:20:56.458Z,12.00
2018-10-06T05:21:56.513Z,8.00
2018-10-06T05:22:56.436Z,12.00
2018-10-06T05:23:56.430Z,16.00
2018-10-06T05:24:56.425Z,16.00
2018-10-06T05:25:56.405Z,16.00
2018-10-06T05:26:56.392Z,16.00
2018-10-06T05:27:56.382Z,20.00
2018-10-06T05:28:56.371Z,24.00
2018-10-06T05:29:56.549Z,24.00
2018-10-06T05:30:56.352Z,28.00
2018-10-06T05:31:56.338Z,28.00
2018-10-06T05:32:56.327Z,36.00
2018-10-06T05:33:56.359Z,36.00
2018-10-06T05:34:56.326Z,40.00
2018-10-06T05:35:56.300Z,44.00
2018-10-06T05:36:56.310Z,48.00
2018-10-06T05:37:56.280Z,52.00
2018-10-06T05:38:56.266Z,56.00
2018-10-06T05:39:56.273Z,60.00
2018-10-06T05:40:56.247Z,68.00
2018-10-06T05:41:56.236Z,76.00
2018-10-06T05:42:56.218Z,80.00
2018-10-06T05:43:56.204Z,88.00
2018-10-06T05:44:56.213Z,100.00
2018-10-06T05:45:56.189Z,108.00
2018-10-06T05:46:56.185Z,120.00
2018-10-06T05:47:56.164Z,128.00
2018-10-06T05:48:56.149Z,136.00
2018-10-06T05:49:56.142Z,152.00
2018-10-06T05:50:56.139Z,160.00
2018-10-06T05:51:56.119Z,172.00
2018-10-06T05:52:56.124Z,184.00
2018-10-06T05:53:56.094Z,196.00
2018-10-06T05:54:56.084Z,208.00
2018-10-06T05:55:56.081Z,220.00
2018-10-06T05:56:56.066Z,228.00
2018-10-06T05:57:56.051Z,236.00
2018-10-06T05:58:56.093Z,252.00
2018-10-06T05:59:56.028Z,260.00
2018-10-06T06:00:56.031Z,276.00
2018-10-06T06:01:56.004Z,288.00
2018-10-06T06:02:56.007Z,300.00
2018-10-06T06:03:55.985Z,316.00
2018-10-06T06:04:55.978Z,332.00
2018-10-06T06:05:55.987Z,344.00
2018-10-06T06:06:55.948Z,356.00
2018-10-06T06:07:55.942Z,372.00
2018-10-06T06:08:55.936Z,388.00
2018-10-06T06:09:55.919Z,404.00
2018-10-06T06:10:55.917Z,420.00
2018-10-06T06:11:55.889Z,436.00
2018-10-06T06:12:55.879Z,448.00
2018-10-06T06:13:55.875Z,468.00
2018-10-06T06:14:55.862Z,484.00
2018-10-06T06:15:55.869Z,508.00
2018-10-06T06:16:55.835Z,532.00
2018-10-06T06:17:55.825Z,552.00
2018-10-06T06:18:55.812Z,576.00
2018-10-06T06:19:55.803Z,600.00
2018-10-06T06:20:55.804Z,620.00
2018-10-06T06:21:55.787Z,640.00
2018-10-06T06:22:55.767Z,664.00
2018-10-06T06:23:55.883Z,684.00
2018-10-06T06:24:55.748Z,700.00
2018-10-06T06:25:55.752Z,708.00
2018-10-06T06:26:55.736Z,728.00
2018-10-06T06:27:55.709Z,736.00
2018-10-06T06:28:55.697Z,740.00
2018-10-06T06:29:55.687Z,740.00
2018-10-06T06:30:55.687Z,740.00
2018-10-06T06:31:55.687Z,744.00
2018-10-06T06:32:55.659Z,748.00
2018-10-06T06:33:55.640Z,740.00
2018-10-06T06:34:55.635Z,740.00
2018-10-06T06:35:55.632Z,752.00
2018-10-06T06:36:55.607Z,768.00
2018-10-06T06:37:55.608Z,784.00
2018-10-06T06:38:55.595Z,792.00
2018-10-06T06:39:55.576Z,792.00
2018-10-06T06:40:55.576Z,800.00
2018-10-06T06:41:55.554Z,804.00
2018-10-06T06:42:55.542Z,792.00
2018-10-06T06:43:55.602Z,800.00
2018-10-06T06:44:55.520Z,812.00
2018-10-06T06:45:55.522Z,800.00
2018-10-06T06:46:55.500Z,812.00
2018-10-06T06:47:55.508Z,828.00
2018-10-06T06:48:55.493Z,820.00
2018-10-06T06:49:55.464Z,868.00
2018-10-06T06:50:55.464Z,876.00
2018-10-06T06:51:55.452Z,844.00
2018-10-06T06:52:55.437Z,852.00
2018-10-06T06:53:55.418Z,884.00
2018-10-06T06:54:55.441Z,888.00
2018-10-06T06:55:55.397Z,892.00
2018-10-06T06:56:55.398Z,896.00
2018-10-06T06:57:55.375Z,904.00
2018-10-06T06:58:55.363Z,908.00
2018-10-06T06:59:55.358Z,920.00
2018-10-06T07:00:55.342Z,900.00
2018-10-06T07:01:55.364Z,924.00
2018-10-06T07:02:55.323Z,924.00
2018-10-06T07:03:55.307Z,936.00
2018-10-06T07:04:55.293Z,936.00
2018-10-06T07:05:55.282Z,936.00
2018-10-06T07:06:55.303Z,944.00
2018-10-06T07:07:55.265Z,948.00
2018-10-06T07:08:55.246Z,952.00
2018-10-06T07:09:55.246Z,968.00
2018-10-06T07:10:55.228Z,980.00
2018-10-06T07:11:55.222Z,992.00
2018-10-06T07:12:55.205Z,1000.00
2018-10-06T07:13:55.188Z,992.00
2018-10-06T07:14:55.175Z,936.00
2018-10-06T07:15:55.167Z,936.00
2018-10-06T07:16:55.167Z,996.00
2018-10-06T07:17:55.144Z,972.00
2018-10-06T07:18:55.154Z,968.00
2018-10-06T07:19:55.121Z,960.00
2018-10-06T07:20:55.119Z,940.00
2018-10-06T07:21:55.107Z,916.00
2018-10-06T07:22:55.084Z,936.00
2018-10-06T07:23:55.077Z,940.00
2018-10-06T07:24:55.063Z,952.00
2018-10-06T07:25:55.049Z,956.00
2018-10-06T07:26:55.052Z,968.00
2018-10-06T07:27:55.029Z,964.00
2018-10-06T07:28:55.016Z,992.00
2018-10-06T07:29:55.008Z,1000.00
2018-10-06T07:30:54.994Z,1008.00
2018-10-06T07:31:55.003Z,1020.00
2018-10-06T07:32:54.971Z,1012.00
2018-10-06T07:33:54.972Z,988.00
2018-10-06T07:34:54.950Z,996.00
2018-10-06T07:35:54.935Z,996.00
2018-10-06T07:36:54.941Z,996.00
2018-10-06T07:37:54.912Z,1000.00
2018-10-06T07:38:54.901Z,1008.00
2018-10-06T07:39:54.888Z,1028.00
2018-10-06T07:40:54.879Z,1052.00
2018-10-06T07:41:54.877Z,1076.00
2018-10-06T07:42:54.855Z,1100.00
2018-10-06T07:43:54.868Z,1136.00
2018-10-06T07:44:54.884Z,1160.00
2018-10-06T07:45:54.824Z,1272.00
2018-10-06T07:46:54.833Z,1336.00
2018-10-06T07:47:54.802Z,1380.00
2018-10-06T07:48:54.790Z,1472.00
2018-10-06T07:49:54.777Z,1572.00
2018-10-06T07:50:54.773Z,1696.00
2018-10-06T07:51:54.754Z,1900.00
2018-10-06T07:52:54.762Z,1984.00
2018-10-06T07:53:54.734Z,2308.00
2018-10-06T07:54:54.721Z,2712.00
2018-10-06T07:55:54.711Z,2656.00
2018-10-06T07:56:54.798Z,1988.00
2018-10-06T07:57:54.697Z,1480.00
2018-10-06T07:58:54.677Z,1384.00
2018-10-06T07:59:54.663Z,1384.00
2018-10-06T08:00:54.671Z,1428.00
2018-10-06T08:01:54.642Z,1484.00
2018-10-06T08:02:54.644Z,1512.00
2018-10-06T08:03:54.617Z,1884.00
2018-10-06T08:04:54.610Z,2108.00
2018-10-06T08:05:54.599Z,2468.00
2018-10-06T08:06:54.588Z,2464.00
2018-10-06T08:07:54.584Z,2528.00
2018-10-06T08:08:54.566Z,3132.00
2018-10-06T08:09:54.549Z,3548.00
2018-10-06T08:10:54.538Z,3612.00
2018-10-06T08:11:54.528Z,3720.00
2018-10-06T08:12:54.529Z,4236.00
2018-10-06T08:13:54.510Z,4444.00
2018-10-06T08:14:54.492Z,4452.00
2018-10-06T08:15:54.485Z,4044.00
2018-10-06T08:16:54.480Z,3672.00
2018-10-06T08:17:54.471Z,2424.00
2018-10-06T08:18:54.453Z,2304.00
2018-10-06T08:19:54.437Z,2524.00
2018-10-06T08:20:54.426Z,2368.00
2018-10-06T08:21:54.415Z,2408.00
2018-10-06T08:22:54.418Z,2324.00
2018-10-06T08:23:54.393Z,2088.00
2018-10-06T08:24:54.383Z,2204.00
2018-10-06T08:25:54.372Z,2840.00
2018-10-06T08:26:54.364Z,3540.00
2018-10-06T08:27:54.366Z,4212.00
2018-10-06T08:28:54.343Z,3228.00
2018-10-06T08:29:54.328Z,3208.00
2018-10-06T08:30:54.315Z,2528.00
2018-10-06T08:31:54.304Z,2344.00
2018-10-06T08:32:54.303Z,2252.00
2018-10-06T08:33:54.280Z,2036.00
2018-10-06T08:34:54.268Z,2048.00
2018-10-06T08:35:54.258Z,2168.00
2018-10-06T08:36:54.257Z,2644.00
2018-10-06T08:37:54.265Z,3196.00
2018-10-06T08:38:54.223Z,2780.00
2018-10-06T08:39:54.217Z,2400.00
2018-10-06T08:40:54.199Z,2456.00
2018-10-06T08:41:54.192Z,1900.00
2018-10-06T08:42:54.278Z,1692.00
2018-10-06T08:43:54.171Z,1692.00
2018-10-06T08:44:54.165Z,1620.00
2018-10-06T08:45:54.157Z,1748.00
2018-10-06T08:46:54.134Z,1852.00
2018-10-06T08:47:54.130Z,2116.00
2018-10-06T08:48:54.115Z,2124.00
2018-10-06T08:49:54.194Z,2148.00
2018-10-06T08:50:54.092Z,1928.00
2018-10-06T08:51:54.076Z,1976.00
2018-10-06T08:52:54.081Z,1980.00
2018-10-06T08:53:54.061Z,1600.00
2018-10-06T08:54:54.042Z,1552.00
2018-10-06T08:55:54.132Z,1556.00
2018-10-06T08:56:54.018Z,1628.00
2018-10-06T08:57:54.018Z,1700.00
2018-10-06T08:58:53.996Z,1928.00
2018-10-06T08:59:53.983Z,2048.00
2018-10-06T09:00:53.973Z,2144.00
2018-10-06T09:01:53.963Z,2064.00
2018-10-06T09:02:53.996Z,2016.00
2018-10-06T09:03:53.941Z,2104.00
2018-10-06T09:04:53.927Z,1944.00
2018-10-06T09:05:53.916Z,1896.00
2018-10-06T09:06:53.907Z,1980.00
2018-10-06T09:07:53.906Z,1976.00
2018-10-06T09:08:53.887Z,2280.00
2018-10-06T09:09:53.871Z,2336.00
2018-10-06T09:10:53.922Z,2464.00
2018-10-06T09:11:53.847Z,2660.00
2018-10-06T09:12:53.858Z,2528.00
2018-10-06T09:13:54.067Z,2564.00
2018-10-06T09:14:53.814Z,2680.00
2018-10-06T09:15:53.810Z,1924.00
2018-10-06T09:16:53.791Z,1920.00
2018-10-06T09:17:53.881Z,1692.00
2018-10-06T09:18:53.782Z,1536.00
2018-10-06T09:19:53.757Z,1652.00
2018-10-06T09:20:53.756Z,1504.00
2018-10-06T09:21:53.737Z,1456.00
2018-10-06T09:22:53.723Z,1448.00
2018-10-06T09:23:53.725Z,1460.00
2018-10-06T09:24:53.700Z,1456.00
2018-10-06T09:25:53.688Z,1428.00
2018-10-06T09:26:53.680Z,1424.00
2018-10-06T09:27:53.669Z,1440.00
2018-10-06T09:28:53.664Z,1468.00
2018-10-06T09:29:53.654Z,1476.00
2018-10-06T09:30:53.634Z,1808.00
2018-10-06T09:31:53.624Z,1608.00
2018-10-06T09:32:53.620Z,1452.00
2018-10-06T09:33:53.624Z,1548.00
2018-10-06T09:34:53.589Z,1508.00
2018-10-06T09:35:53.582Z,1544.00
2018-10-06T09:36:53.565Z,1684.00
2018-10-06T09:37:53.556Z,1660.00
2018-10-06T09:38:53.556Z,1784.00
2018-10-06T09:39:53.533Z,1500.00
2018-10-06T09:40:53.534Z,1460.00
2018-10-06T09:41:53.559Z,1672.00
2018-10-06T09:42:53.542Z,1900.00
2018-10-06T09:43:53.597Z,1568.00
2018-10-06T09:44:53.476Z,1552.00
2018-10-06T09:45:53.477Z,1384.00
2018-10-06T09:46:53.454Z,1508.00
2018-10-06T09:47:53.487Z,1428.00
2018-10-06T09:48:53.445Z,1528.00
2018-10-06T09:49:53.430Z,1388.00
2018-10-06T09:50:53.411Z,1384.00
2018-10-06T09:51:53.406Z,1380.00
2018-10-06T09:52:53.389Z,1280.00
2018-10-06T09:53:53.427Z,1288.00
2018-10-06T09:54:53.363Z,1612.00
2018-10-06T09:55:53.350Z,1664.00
2018-10-06T09:56:53.365Z,1732.00
2018-10-06T09:57:53.340Z,1680.00
2018-10-06T09:58:53.329Z,1696.00
2018-10-06T09:59:53.304Z,1720.00
2018-10-06T10:00:53.297Z,1776.00
2018-10-06T10:01:53.293Z,1684.00
2018-10-06T10:02:53.273Z,2032.00
2018-10-06T10:03:53.284Z,2000.00
2018-10-06T10:04:53.248Z,2052.00
2018-10-06T10:05:53.334Z,2976.00
2018-10-06T10:06:53.226Z,3048.00
2018-10-06T10:07:53.215Z,2412.00
2018-10-06T10:08:53.212Z,2784.00
2018-10-06T10:09:53.288Z,2876.00
2018-10-06T10:10:53.184Z,2936.00
2018-10-06T10:11:53.181Z,2840.00
2018-10-06T10:12:53.160Z,2764.00
2018-10-06T10:13:53.175Z,2392.00
2018-10-06T10:14:53.140Z,2348.00
2018-10-06T10:15:53.127Z,2348.00
2018-10-06T10:16:53.134Z,2504.00
2018-10-06T10:17:53.375Z,4468.00
2018-10-06T10:18:53.098Z,5048.00
2018-10-06T10:19:53.090Z,7508.00
2018-10-06T10:20:53.067Z,3372.00
2018-10-06T10:21:53.191Z,4744.00
2018-10-06T10:22:53.060Z,5956.00
2018-10-06T10:23:53.143Z,5020.00
2018-10-06T10:24:53.048Z,11192.00
2018-10-06T10:25:53.016Z,8072.00
2018-10-06T10:26:53.015Z,4212.00
2018-10-06T10:27:52.992Z,2440.00
2018-10-06T10:28:53.026Z,2300.00
2018-10-06T10:29:53.004Z,2244.00
2018-10-06T10:30:52.965Z,2368.00
2018-10-06T10:31:52.947Z,2624.00
2018-10-06T10:32:52.936Z,2888.00
2018-10-06T10:33:52.929Z,3032.00
2018-10-06T10:34:52.932Z,3364.00
2018-10-06T10:35:52.901Z,3544.00
2018-10-06T10:36:52.893Z,3788.00
2018-10-06T10:37:52.946Z,3924.00
2018-10-06T10:38:52.875Z,4028.00
2018-10-06T10:39:52.882Z,4224.00
2018-10-06T10:40:52.846Z,4328.00
2018-10-06T10:41:52.834Z,4400.00
2018-10-06T10:42:52.834Z,4520.00
2018-10-06T10:43:52.836Z,4556.00
2018-10-06T10:44:52.815Z,4508.00
2018-10-06T10:45:52.794Z,4396.00
2018-10-06T10:46:52.783Z,4380.00
2018-10-06T10:47:52.774Z,4372.00
2018-10-06T10:48:52.762Z,4300.00
2018-10-06T10:49:52.758Z,4368.00
2018-10-06T10:50:52.893Z,4468.00
2018-10-06T10:51:52.727Z,4408.00
2018-10-06T10:52:52.723Z,4376.00
2018-10-06T10:53:52.702Z,4400.00
2018-10-06T10:54:52.819Z,4368.00
2018-10-06T10:55:52.682Z,4364.00
2018-10-06T10:56:52.685Z,4352.00
2018-10-06T10:57:52.777Z,4280.00
2018-10-06T10:58:52.662Z,4344.00
2018-10-06T10:59:52.964Z,4352.00
2018-10-06T11:00:52.636Z,4380.00
2018-10-06T11:01:52.624Z,4368.00
2018-10-06T11:02:52.608Z,4404.00
2018-10-06T11:03:52.651Z,4400.00
2018-10-06T11:04:52.719Z,4396.00
2018-10-06T11:05:52.600Z,4376.00
2018-10-06T11:06:52.561Z,4340.00
2018-10-06T11:07:52.547Z,4388.00
2018-10-06T11:08:52.537Z,4460.00
2018-10-06T11:09:52.541Z,4488.00
2018-10-06T11:10:52.525Z,4604.00
2018-10-06T11:11:52.512Z,4652.00
2018-10-06T11:12:52.533Z,4776.00
2018-10-06T11:13:52.479Z,4908.00
2018-10-06T11:14:52.567Z,5060.00
2018-10-06T11:15:52.464Z,5088.00
2018-10-06T11:16:52.485Z,5012.00
2018-10-06T11:17:52.454Z,4880.00
2018-10-06T11:18:52.463Z,4744.00
2018-10-06T11:19:52.415Z,4788.00
2018-10-06T11:20:52.415Z,4748.00
2018-10-06T11:21:52.409Z,6984.00
2018-10-06T11:22:52.385Z,5352.00
2018-10-06T11:23:52.370Z,5148.00
2018-10-06T11:24:52.484Z,5200.00
2018-10-06T11:25:53.066Z,5288.00
2018-10-06T11:26:52.337Z,5336.00
2018-10-06T11:27:52.341Z,5332.00
2018-10-06T11:28:52.316Z,5356.00
2018-10-06T11:29:52.302Z,5268.00
2018-10-06T11:30:52.302Z,5188.00
2018-10-06T11:31:52.286Z,4900.00
2018-10-06T11:32:52.281Z,4784.00
2018-10-06T11:33:52.256Z,4484.00
2018-10-06T11:34:52.247Z,4500.00
2018-10-06T11:35:52.248Z,4400.00
2018-10-06T11:36:52.244Z,4596.00
2018-10-06T11:37:52.333Z,4744.00
2018-10-06T11:38:52.205Z,5312.00
2018-10-06T11:39:52.198Z,5148.00
2018-10-06T11:40:52.192Z,5032.00
2018-10-06T11:41:52.168Z,4860.00
2018-10-06T11:42:52.156Z,4752.00
2018-10-06T11:43:52.152Z,4944.00
2018-10-06T11:44:52.132Z,4956.00
2018-10-06T11:45:52.139Z,4976.00
2018-10-06T11:46:52.112Z,5060.00
2018-10-06T11:47:52.100Z,5124.00
2018-10-06T11:48:52.091Z,5208.00
2018-10-06T11:49:52.119Z,5192.00
2018-10-06T11:50:52.087Z,5200.00
2018-10-06T11:51:52.065Z,5612.00
2018-10-06T11:52:52.045Z,5652.00
2018-10-06T11:53:52.033Z,5860.00
2018-10-06T11:54:52.034Z,5768.00
2018-10-06T11:55:52.031Z,5336.00
2018-10-06T11:56:51.999Z,5132.00
2018-10-06T11:57:52.002Z,4892.00
2018-10-06T11:58:51.978Z,4792.00
2018-10-06T11:59:52.050Z,4708.00
2018-10-06T12:00:51.973Z,4668.00
2018-10-06T12:01:51.949Z,4644.00
2018-10-06T12:02:51.932Z,4380.00
2018-10-06T12:03:51.923Z,4284.00
2018-10-06T12:04:51.912Z,4384.00
2018-10-06T12:05:52.017Z,4580.00
2018-10-06T12:06:51.901Z,6144.00
2018-10-06T12:07:51.876Z,4508.00
2018-10-06T12:08:51.866Z,4184.00
2018-10-06T12:09:51.853Z,3892.00
2018-10-06T12:10:51.857Z,3400.00
2018-10-06T12:11:51.833Z,3372.00
2018-10-06T12:12:51.837Z,3336.00
2018-10-06T12:13:51.813Z,3160.00
2018-10-06T12:14:51.801Z,3140.00
2018-10-06T12:15:51.798Z,3100.00
2018-10-06T12:16:51.776Z,3380.00
2018-10-06T12:17:51.767Z,3224.00
2018-10-06T12:18:51.773Z,3096.00
2018-10-06T12:19:51.744Z,2980.00
2018-10-06T12:20:51.750Z,3024.00
2018-10-06T12:21:51.724Z,3168.00
2018-10-06T12:22:51.716Z,3232.00
2018-10-06T12:23:51.698Z,3320.00
2018-10-06T12:24:51.691Z,3232.00
2018-10-06T12:25:51.700Z,3352.00
2018-10-06T12:26:51.678Z,3396.00
2018-10-06T12:27:51.656Z,3532.00
2018-10-06T12:28:51.644Z,3896.00
2018-10-06T12:29:51.632Z,3704.00
2018-10-06T12:30:51.622Z,3992.00
2018-10-06T12:31:51.623Z,4404.00
2018-10-06T12:32:51.600Z,4056.00
2018-10-06T12:33:51.589Z,4152.00
2018-10-06T12:34:51.692Z,4136.00
2018-10-06T12:35:51.573Z,3684.00
2018-10-06T12:36:51.567Z,3484.00
2018-10-06T12:37:51.544Z,3288.00
2018-10-06T12:38:51.555Z,3028.00